KTRM/TRM METAR and TAF weather

Enter ICAO airport designator
Station Type Date Time Source
KTRM METAR 2019/12/08 03:52 UTC NOAA

KTRM 080352Z AUTO 00000KT 6SM BR CLR 14/12 A3007 RMK AO2 SLP181 T01390122


Station Type Date Time Source
KTRM Decoded METAR 2019/12/08 03:52 UTC NOAA

Palm Springs, Jacqueline Cochran Regional Airport, CA, United States (KTRM) 33-37-36N 116-09-34W
Dec 07, 2019 - 10:52 PM EST / 2019.12.08 0352 UTC
Wind: Calm:0
Visibility: 6 mile(s):0
Sky conditions: clear
Weather: mist
Temperature: 57.0 F (13.9 C)
Dew Point: 54.0 F (12.2 C)
Relative Humidity: 89%
Pressure (altimeter): 30.07 in. Hg (1018 hPa)
ob: KTRM 080352Z AUTO 00000KT 6SM BR CLR 14/12 A3007 RMK AO2 SLP181 T01390122
cycle: 4

Station Type Date Time Source
KTRM TAF 2019/12/07 18:59 UTC NOAA

TAF COR KTRM 071759Z 0718/0818 VRB06KT P6SM BKN090
FM080300 VRB04KT P6SM VCSH BKN040
FM081000 VRB05KT P6SM SCT050 BKN120

Example: see airport list